Time,TemperatureF,DewpointF,PressureIn,WindDirection,WindDirectionDegrees,WindSpeedMPH,WindSpeedGustMPH,Humidity,HourlyPrecipIn,Conditions,Clouds,dailyrainin,SoftwareType,DateUTC
2014-01-06 10:50:00,-10.0,-16.8,30.55,North,351,2.0,3.0,71,0.00,,---,0.00,VWS V14.01,2014-01-06 15:50:00,
2014-01-06 11:04:00,-9.8,-16.6,30.54,NE,35,0.0,5.0,71,0.00,,---,0.00,VWS V14.01,2014-01-06 16:04:00,
2014-01-06 11:14:00,-9.6,-16.4,30.54,North,11,2.0,7.0,71,0.00,,---,0.00,VWS V14.01,2014-01-06 16:14:00,
2014-01-06 11:24:00,-9.3,-16.1,30.54,NNE,13,2.0,12.0,71,0.00,,---,0.00,VWS V14.01,2014-01-06 16:24:00,
2014-01-06 11:34:00,-9.1,-15.9,30.53,North,10,6.0,6.0,71,0.00,,---,0.00,VWS V14.01,2014-01-06 16:34:00,
2014-01-06 11:44:00,-9.3,-15.9,30.53,North,10,1.0,6.0,72,0.00,,---,0.00,VWS V14.01,2014-01-06 16:44:00,
2014-01-06 11:54:00,-9.1,-15.7,30.52,NNW,348,2.0,5.0,72,0.00,,---,0.00,VWS V14.01,2014-01-06 16:54:00,
2014-01-06 12:04:00,-8.6,-15.2,30.52,NE,46,4.0,9.0,72,0.00,,---,0.00,VWS V14.01,2014-01-06 17:04:00,
2014-01-06 12:14:00,-8.4,-15.0,30.52,North,360,1.0,11.0,72,0.00,,---,0.00,VWS V14.01,2014-01-06 17:14:00,
2014-01-06 12:24:00,-8.2,-14.8,30.51,NNW,337,1.0,6.0,72,0.00,,---,0.00,VWS V14.01,2014-01-06 17:24:00,
2014-01-06 12:34:00,-8.4,-15.3,30.50,North,11,1.0,5.0,71,0.00,,---,0.00,VWS V14.01,2014-01-06 17:34:00,
2014-01-06 12:44:00,-7.9,-14.5,30.50,NE,38,1.0,3.0,72,0.00,,---,0.00,VWS V14.01,2014-01-06 17:44:00,
2014-01-06 12:54:00,-7.7,-14.3,30.50,NE,42,1.0,4.0,72,0.00,,---,0.00,VWS V14.01,2014-01-06 17:54:00,
2014-01-06 13:04:00,-7.0,-13.6,30.49,North,360,3.0,6.0,72,0.00,,---,0.00,VWS V14.01,2014-01-06 18:04:00,
2014-01-06 13:14:00,-7.7,-14.3,30.49,NNE,13,2.0,7.0,72,0.00,,---,0.00,VWS V14.01,2014-01-06 18:14:00,
2014-01-06 13:24:00,-7.7,-14.3,30.49,North,5,1.0,5.0,72,0.00,,---,0.00,VWS V14.01,2014-01-06 18:24:00,
2014-01-06 13:34:00,-7.9,-14.5,30.50,North,355,5.0,6.0,72,0.00,,---,0.00,VWS V14.01,2014-01-06 18:34:00,
2014-01-06 13:44:00,-8.9,-15.7,30.50,NE,36,3.0,5.0,71,0.00,,---,0.00,VWS V14.01,2014-01-06 18:44:00,
2014-01-06 13:54:00,-8.4,-15.0,30.50,NNW,333,2.0,9.0,72,0.00,,---,0.00,VWS V14.01,2014-01-06 18:54:00,
2014-01-06 14:04:00,-7.9,-14.5,30.50,North,5,4.0,5.0,72,0.00,,---,0.00,VWS V14.01,2014-01-06 19:04:00,
2014-01-06 14:14:00,-7.5,-14.1,30.50,NE,49,1.0,4.0,72,0.00,,---,0.00,VWS V14.01,2014-01-06 19:14:00,
2014-01-06 14:24:00,-7.5,-14.1,30.50,WNW,284,1.0,4.0,72,0.00,,---,0.00,VWS V14.01,2014-01-06 19:24:00,
2014-01-06 14:34:00,-7.5,-14.1,30.51,WNW,289,3.0,5.0,72,0.00,,---,0.00,VWS V14.01,2014-01-06 19:34:00,
2014-01-06 14:44:00,-7.9,-14.5,30.51,NNE,22,1.0,6.0,72,0.00,,---,0.00,VWS V14.01,2014-01-06 19:44:00,
2014-01-06 14:54:00,-7.2,-13.6,30.51,NW,307,1.0,4.0,73,0.00,,---,0.00,VWS V14.01,2014-01-06 19:54:00,
2014-01-06 15:04:00,-7.9,-15.1,30.52,North,5,1.0,6.0,70,0.00,,---,0.00,VWS V14.01,2014-01-06 20:04:00,
2014-01-06 15:14:00,-7.9,-14.5,30.52,NNW,339,0.0,6.0,72,0.00,,---,0.00,VWS V14.01,2014-01-06 20:14:00,
2014-01-06 15:24:00,-7.9,-14.5,30.53,WNW,296,2.0,5.0,72,0.00,,---,0.00,VWS V14.01,2014-01-06 20:24:00,
2014-01-06 15:34:00,-8.2,-15.1,30.53,North,355,3.0,7.0,71,0.00,,---,0.00,VWS V14.01,2014-01-06 20:34:00,
2014-01-06 15:44:00,-7.9,-14.5,30.53,NNW,335,2.0,7.0,72,0.00,,---,0.00,VWS V14.01,2014-01-06 20:44:00,
2014-01-06 15:54:00,-7.9,-14.5,30.54,NW,323,1.0,5.0,72,0.00,,---,0.00,VWS V14.01,2014-01-06 20:54:00,
2014-01-06 16:04:00,-8.2,-14.8,30.54,West,280,3.0,5.0,72,0.00,,---,0.00,VWS V14.01,2014-01-06 21:04:00,
2014-01-06 16:14:00,-8.2,-14.8,30.54,NNE,31,1.0,4.0,72,0.00,,---,0.00,VWS V14.01,2014-01-06 21:14:00,
2014-01-06 16:24:00,-8.4,-15.3,30.50,NNW,340,2.0,5.0,71,0.00,,---,0.00,VWS V14.01,2014-01-06 21:24:00,
2014-01-06 16:34:00,-8.4,-15.3,30.50,WNW,283,2.0,5.0,71,0.00,,---,0.00,VWS V14.01,2014-01-06 21:34:00,
2014-01-06 16:44:00,-8.4,-15.3,30.50,WNW,293,3.0,5.0,71,0.00,,---,0.00,VWS V14.01,2014-01-06 21:44:00,
2014-01-06 16:54:00,-8.6,-15.2,30.51,NW,318,1.0,3.0,72,0.00,,---,0.00,VWS V14.01,2014-01-06 21:54:00,
2014-01-06 17:04:00,-8.4,-15.0,30.51,SW,223,0.0,4.0,72,0.00,,---,0.00,VWS V14.01,2014-01-06 22:04:00,
2014-01-06 17:14:00,-8.9,-15.7,30.51,NNW,346,2.0,5.0,71,0.00,,---,0.00,VWS V14.01,2014-01-06 22:14:00,
2014-01-06 17:24:00,-8.9,-15.7,30.52,WNW,294,1.0,4.0,71,0.00,,---,0.00,VWS V14.01,2014-01-06 22:24:00,
2014-01-06 17:34:00,-9.3,-16.1,30.53,NNE,13,0.0,4.0,71,0.00,,---,0.00,VWS V14.01,2014-01-06 22:34:00,
2014-01-06 17:44:00,-9.6,-16.4,30.53,NNW,342,1.0,3.0,71,0.00,,---,0.00,VWS V14.01,2014-01-06 22:44:00,
2014-01-06 17:54:00,-9.8,-16.6,30.53,NNW,333,2.0,3.0,71,0.00,,---,0.00,VWS V14.01,2014-01-06 22:54:00,
2014-01-06 18:04:00,-10.0,-16.8,30.53,NW,326,1.0,3.0,71,0.00,,---,0.00,VWS V14.01,2014-01-06 23:04:00,
2014-01-06 18:14:00,-10.0,-16.8,30.53,NW,326,0.0,2.0,71,0.00,,---,0.00,VWS V14.01,2014-01-06 23:14:00,
2014-01-06 18:24:00,-10.0,-16.8,30.59,NW,326,2.0,3.0,71,0.00,,---,0.00,VWS V14.01,2014-01-06 23:24:00,
2014-01-06 18:34:00,-10.0,-16.8,30.59,NW,326,1.0,3.0,71,0.00,,---,0.00,VWS V14.01,2014-01-06 23:34:00,
2014-01-06 18:44:00,-10.0,-16.8,30.59,NW,326,2.0,2.0,71,0.00,,---,0.00,VWS V14.01,2014-01-06 23:44:00,
2014-01-06 18:54:00,-10.0,-16.8,30.60,NW,319,0.0,3.0,71,0.00,,---,0.00,VWS V14.01,2014-01-06 23:54:00,
2014-01-06 19:04:00,-10.0,-16.8,30.59,NW,319,1.0,3.0,71,0.00,,---,0.00,VWS V14.01,2014-01-07 00:04:00,
2014-01-06 19:14:00,-10.0,-16.8,30.59,NW,319,0.0,2.0,71,0.00,,---,0.00,VWS V14.01,2014-01-07 00:14:00,
2014-01-06 19:24:00,-10.0,-16.8,30.60,NW,319,0.0,3.0,71,0.00,,---,0.00,VWS V14.01,2014-01-07 00:24:00,
2014-01-06 19:34:00,-10.3,-17.1,30.60,NW,319,0.0,2.0,71,0.00,,---,0.00,VWS V14.01,2014-01-07 00:34:00,
2014-01-06 19:44:00,-10.3,-17.1,30.60,NW,319,0.0,2.0,71,0.00,,---,0.00,VWS V14.01,2014-01-07 00:44:00,
2014-01-06 19:54:00,-10.3,-17.1,30.60,NW,319,0.0,3.0,71,0.00,,---,0.00,VWS V14.01,2014-01-07 00:54:00,
2014-01-06 20:04:00,-10.3,-17.1,30.60,NW,319,2.0,2.0,71,0.00,,---,0.00,VWS V14.01,2014-01-07 01:04:00,
2014-01-06 20:14:00,-10.5,-17.3,30.60,NW,319,0.0,2.0,71,0.00,,---,0.00,VWS V14.01,2014-01-07 01:14:00,
2014-01-06 20:24:00,-10.5,-17.3,30.55,NW,319,0.0,2.0,71,0.00,,---,0.00,VWS V14.01,2014-01-07 01:24:00,
2014-01-06 20:34:00,-10.5,-17.3,30.56,NW,319,0.0,1.0,71,0.00,,---,0.00,VWS V14.01,2014-01-07 01:34:00,
2014-01-06 20:44:00,-10.5,-17.3,30.56,NW,319,0.0,1.0,71,0.00,,---,0.00,VWS V14.01,2014-01-07 01:44:00,
2014-01-06 20:54:00,-10.5,-17.3,30.56,NW,319,0.0,2.0,71,0.00,,---,0.00,VWS V14.01,2014-01-07 01:54:00,
2014-01-06 21:04:00,-10.5,-17.3,30.56,NW,319,1.0,2.0,71,0.00,,---,0.00,VWS V14.01,2014-01-07 02:04:00,
2014-01-06 21:14:00,-10.5,-17.3,30.56,NW,319,1.0,2.0,71,0.00,,---,0.00,VWS V14.01,2014-01-07 02:14:00,
2014-01-06 21:24:00,-10.3,-17.1,30.56,NW,319,0.0,2.0,71,0.00,,---,0.00,VWS V14.01,2014-01-07 02:24:00,
2014-01-06 21:34:00,-10.0,-16.8,30.56,NW,319,0.0,2.0,71,0.00,,---,0.00,VWS V14.01,2014-01-07 02:34:00,
2014-01-06 21:44:00,-10.0,-16.8,30.56,NW,319,2.0,2.0,71,0.00,,---,0.00,VWS V14.01,2014-01-07 02:44:00,
2014-01-06 21:54:00,-10.0,-16.8,30.56,NW,319,1.0,3.0,71,0.00,,---,0.00,VWS V14.01,2014-01-07 02:54:00,
2014-01-06 22:14:00,-9.8,-16.6,30.57,NW,319,0.0,3.0,71,0.00,,---,0.00,VWS V14.01,2014-01-07 03:14:00,
2014-01-06 22:24:00,-9.8,-16.6,30.62,NW,319,0.0,3.0,71,0.00,,---,0.00,VWS V14.01,2014-01-07 03:24:00,
2014-01-06 22:34:00,-9.6,-16.4,30.62,NW,319,0.0,2.0,71,0.00,,---,0.00,VWS V14.01,2014-01-07 03:34:00,
2014-01-06 22:44:00,-9.6,-16.4,30.62,NW,319,1.0,3.0,71,0.00,,---,0.00,VWS V14.01,2014-01-07 03:44:00,
2014-01-06 22:54:00,-9.8,-16.6,30.62,NW,319,1.0,2.0,71,0.00,,---,0.00,VWS V14.01,2014-01-07 03:54:00,
2014-01-06 23:04:00,-9.8,-16.6,30.62,NW,319,0.0,2.0,71,0.00,,---,0.00,VWS V14.01,2014-01-07 04:04:00,
2014-01-06 23:14:00,-9.6,-16.4,30.62,NW,319,0.0,2.0,71,0.00,,---,0.00,VWS V14.01,2014-01-07 04:14:00,
2014-01-06 23:24:00,-9.6,-16.4,30.61,NW,319,1.0,2.0,71,0.00,,---,0.00,VWS V14.01,2014-01-07 04:24:00,
2014-01-06 23:34:00,-9.6,-16.4,30.61,NW,319,2.0,2.0,71,0.00,,---,0.00,VWS V14.01,2014-01-07 04:34:00,
2014-01-06 23:44:00,-9.3,-16.1,30.61,NW,319,2.0,3.0,71,0.00,,---,0.00,VWS V14.01,2014-01-07 04:44:00,
2014-01-06 23:54:00,-9.3,-16.1,30.62,NW,319,0.0,3.0,71,0.00,,---,0.00,VWS V14.01,2014-01-07 04:54:00,